Time;durP1;ratioP1;P1;durP2;ratioP2;P2;SDS_P1;SDS_P2;PMS_P1;PMS_P2;Temp;Humidity;BMP_temperature;BMP_pressure;BME280_temperature;BME280_humidity;BME280_pressure;Samples;Min_cycle;Max_cycle;Signal;HPM_P1;HPM_P2
2021/01/22 00:00:51;;;;;;;128.18;60.15;;;;;;;-2.82;100.00;97824.25;2072112;28;20701;-74
2021/01/22 00:01:52;;;;;;;144.70;67.97;;;;;;;-2.83;100.00;97831.31;2071742;28;20594;-75
2021/01/22 00:02:53;;;;;;;140.77;64.38;;;;;;;-2.92;100.00;97823.09;2071993;28;20281;-75
2021/01/22 00:03:54;;;;;;;137.20;66.13;;;;;;;-2.90;100.00;97823.63;2072029;28;20270;-74
2021/01/22 00:04:55;;;;;;;130.65;60.85;;;;;;;-2.89;100.00;97824.44;2072122;28;20235;-74
2021/01/22 00:05:57;;;;;;;144.37;65.20;;;;;;;-2.93;100.00;97823.34;2071377;28;20228;-74
2021/01/22 00:06:58;;;;;;;132.85;60.30;;;;;;;-2.97;100.00;97817.00;2071398;28;20342;-74
2021/01/22 00:08:00;;;;;;;141.98;65.50;;;;;;;-2.97;100.00;97822.22;2071139;28;20220;-74
2021/01/22 00:09:02;;;;;;;116.30;57.90;;;;;;;-3.00;100.00;97807.84;2071414;28;20240;-74
2021/01/22 00:10:05;;;;;;;144.25;67.82;;;;;;;-3.06;100.00;97808.78;2071228;28;20220;-75
2021/01/22 00:11:05;;;;;;;125.53;59.67;;;;;;;-3.03;100.00;97807.53;2071428;28;20216;-74
2021/01/22 00:12:07;;;;;;;124.53;58.80;;;;;;;-3.10;100.00;97792.03;2071097;28;20230;-74
2021/01/22 00:13:08;;;;;;;139.55;62.40;;;;;;;-3.14;100.00;97785.72;2070803;28;20749;-75
2021/01/22 00:14:09;;;;;;;125.97;58.77;;;;;;;-3.05;100.00;97804.34;2071347;28;20685;-74
2021/01/22 00:15:11;;;;;;;137.38;62.85;;;;;;;-3.10;100.00;97797.25;2072098;28;20231;-73
2021/01/22 00:16:12;;;;;;;143.02;65.43;;;;;;;-3.19;100.00;97788.25;2071180;28;20259;-75
2021/01/22 00:17:13;;;;;;;150.15;67.88;;;;;;;-3.16;100.00;97798.22;2071202;28;20630;-73
2021/01/22 00:18:14;;;;;;;143.67;64.43;;;;;;;-3.19;100.00;97790.88;2071313;28;20220;-73
2021/01/22 00:19:15;;;;;;;147.93;65.70;;;;;;;-3.27;100.00;97783.44;2071265;28;20587;-73
2021/01/22 00:20:16;;;;;;;150.70;66.77;;;;;;;-3.20;100.00;97797.13;2071268;28;20242;-74
2021/01/22 00:21:17;;;;;;;133.27;61.75;;;;;;;-3.27;100.00;97778.22;2071495;28;20283;-74
2021/01/22 00:22:19;;;;;;;148.73;70.83;;;;;;;-3.34;100.00;97777.59;2071433;28;20275;-73
2021/01/22 00:23:20;;;;;;;184.07;82.55;;;;;;;-3.15;100.00;97797.19;2071170;28;20696;-74
2021/01/22 00:24:22;;;;;;;177.70;83.40;;;;;;;-3.08;100.00;97800.41;2071373;28;20228;-74
2021/01/22 00:25:23;;;;;;;201.38;90.07;;;;;;;-3.04;100.00;97785.06;2062644;28;20640;-74
2021/01/22 00:26:24;;;;;;;209.27;94.77;;;;;;;-2.92;100.00;97789.16;2071332;28;20267;-74
2021/01/22 00:27:25;;;;;;;206.57;93.25;;;;;;;-2.83;100.00;97786.16;2071210;28;20296;-74
2021/01/22 00:28:26;;;;;;;224.10;96.40;;;;;;;-2.75;100.00;97781.31;2063044;28;20232;-74
2021/01/22 00:29:27;;;;;;;218.25;94.18;;;;;;;-2.64;100.00;97787.44;2071066;28;20235;-74
2021/01/22 00:30:28;;;;;;;211.83;94.57;;;;;;;-2.54;100.00;97789.38;2071437;28;20231;-74
2021/01/22 00:31:29;;;;;;;201.80;94.60;;;;;;;-2.42;100.00;97793.47;2071066;28;20682;-74
2021/01/22 00:32:30;;;;;;;215.20;97.30;;;;;;;-2.38;100.00;97788.53;2072002;28;20548;-74
2021/01/22 00:33:31;;;;;;;203.43;95.93;;;;;;;-2.38;100.00;97785.94;2072043;28;20224;-74
2021/01/22 00:34:32;;;;;;;216.13;94.83;;;;;;;-2.36;100.00;97782.03;2071209;28;20228;-74
2021/01/22 00:35:33;;;;;;;208.63;95.30;;;;;;;-2.46;100.00;97768.88;2071257;28;21081;-74
2021/01/22 00:36:34;;;;;;;215.63;95.40;;;;;;;-2.33;100.00;97780.78;2071056;28;20590;-75
2021/01/22 00:37:36;;;;;;;211.93;93.65;;;;;;;-2.34;100.00;97785.22;2062969;28;20228;-74
2021/01/22 00:38:37;;;;;;;205.40;94.07;;;;;;;-2.43;100.00;97765.78;2062847;28;20315;-75
2021/01/22 00:39:38;;;;;;;210.70;94.93;;;;;;;-2.32;100.00;97775.31;2071279;28;20224;-75
2021/01/22 00:40:39;;;;;;;198.03;92.83;;;;;;;-2.29;100.00;97792.31;2072034;28;20228;-74
2021/01/22 00:41:40;;;;;;;198.52;92.13;;;;;;;-2.29;100.00;97787.06;2071390;28;20734;-74
2021/01/22 00:42:42;;;;;;;196.37;89.33;;;;;;;-2.24;100.00;97788.97;2071350;28;20719;-74
2021/01/22 00:43:43;;;;;;;214.43;90.95;;;;;;;-2.23;100.00;97782.72;2071196;28;20231;-75
2021/01/22 00:44:44;;;;;;;204.00;91.57;;;;;;;-2.16;100.00;97789.34;2071120;28;20223;-74
2021/01/22 00:45:45;;;;;;;208.52;89.53;;;;;;;-2.17;100.00;97784.31;2071138;28;20227;-75
2021/01/22 00:46:46;;;;;;;211.23;91.27;;;;;;;-2.12;100.00;97789.63;2072099;28;20278;-74
2021/01/22 00:47:47;;;;;;;202.57;87.45;;;;;;;-2.19;100.00;97771.50;2071313;28;20299;-74
2021/01/22 00:48:49;;;;;;;193.68;89.63;;;;;;;-2.11;100.00;97778.13;2071204;28;20230;-75
2021/01/22 00:49:49;;;;;;;191.77;86.70;;;;;;;-2.15;100.00;97780.44;2071807;28;20256;-74
2021/01/22 00:50:51;;;;;;;194.90;86.83;;;;;;;-2.17;100.00;97785.13;2072003;28;20220;-75
2021/01/22 00:51:52;;;;;;;203.27;91.60;;;;;;;-2.16;100.00;97780.69;2072667;28;20224;-76
2021/01/22 00:52:54;;;;;;;187.10;85.03;;;;;;;-2.22;100.00;97768.63;2075422;28;20367;-74
2021/01/22 00:53:56;;;;;;;187.65;86.45;;;;;;;-2.22;100.00;97774.63;2095788;28;23240;-74
2021/01/22 00:54:58;;;;;;;187.40;85.00;;;;;;;-2.21;100.00;97772.81;2088695;28;20214;-74
2021/01/22 00:56:27;;;;;;;187.00;88.63;;;;;;;-2.13;100.00;97767.94;2080016;28;20631;-74
2021/01/22 00:57:34;;;;;;;203.88;86.25;;;;;;;-2.09;100.00;97763.00;2080525;28;20318;-74
2021/01/22 00:58:35;;;;;;;191.50;89.43;;;;;;;-2.11;100.00;97759.84;2080764;28;20262;-74
2021/01/22 00:59:55;;;;;;;191.23;88.40;;;;;;;-2.16;100.00;97755.38;2080409;28;20219;-74
2021/01/22 01:00:56;;;;;;;187.85;87.88;;;;;;;-2.15;100.00;97756.94;2097053;28;20222;-74
2021/01/22 01:02:03;;;;;;;197.82;87.25;;;;;;;-2.22;100.00;97750.31;2088196;28;20222;-74
2021/01/22 01:03:05;;;;;;;199.97;86.73;;;;;;;-2.23;100.00;97754.75;2080846;28;20223;-74
2021/01/22 01:04:05;;;;;;;191.48;83.30;;;;;;;-2.27;100.00;97751.84;2080791;28;20223;-74
2021/01/22 01:05:23;;;;;;;190.27;84.80;;;;;;;-2.28;100.00;97758.09;2070459;28;20249;-75
2021/01/22 01:06:24;;;;;;;191.60;87.55;;;;;;;-2.34;100.00;97746.03;2080816;28;20223;-74
2021/01/22 01:07:29;;;;;;;188.77;83.30;;;;;;;-2.16;100.00;97749.34;2078269;28;20664;-74
2021/01/22 01:08:31;;;;;;;184.40;84.50;;;;;;;-2.10;100.00;97749.13;2072528;28;20223;-74
2021/01/22 01:09:40;;;;;;;192.18;85.50;;;;;;;-2.19;100.00;97736.75;2080405;28;20277;-74
2021/01/22 01:10:59;;;;;;;190.15;82.93;;;;;;;-2.18;100.00;97751.41;2080579;28;20733;-74
2021/01/22 01:12:27;;;;;;;180.95;82.35;;;;;;;-2.21;100.00;97741.44;2076782;28;20230;-74
2021/01/22 01:13:47;;;;;;;192.98;83.63;;;;;;;-2.23;100.00;97744.31;2081047;28;20227;-75
2021/01/22 01:14:56;;;;;;;172.15;78.95;;;;;;;-2.25;100.00;97735.16;2080221;28;20230;-74
2021/01/22 01:16:07;;;;;;;173.45;80.65;;;;;;;-2.32;100.00;97736.13;2080264;28;20306;-76
2021/01/22 01:17:08;;;;;;;179.40;80.97;;;;;;;-2.28;100.00;97739.81;2080639;28;20223;-75
2021/01/22 01:18:09;;;;;;;177.68;78.18;;;;;;;-2.28;100.00;97737.19;2080740;28;20227;-75
2021/01/22 01:19:10;;;;;;;180.70;79.27;;;;;;;-2.24;100.00;97742.75;2080661;28;20224;-74
2021/01/22 01:20:12;;;;;;;178.07;75.20;;;;;;;-2.27;100.00;97743.22;2080715;28;20250;-75
2021/01/22 01:21:13;;;;;;;175.50;80.55;;;;;;;-2.36;100.00;97729.81;2081513;28;20306;-74
2021/01/22 01:22:14;;;;;;;178.13;79.97;;;;;;;-2.32;100.00;97740.56;2080657;28;20235;-74
2021/01/22 01:23:16;;;;;;;187.23;78.97;;;;;;;-2.36;100.00;97745.47;2080812;28;20230;-75
2021/01/22 01:24:17;;;;;;;175.48;79.00;;;;;;;-2.48;100.00;97723.94;2080665;28;20223;-75
2021/01/22 01:25:19;;;;;;;169.10;76.90;;;;;;;-2.33;100.00;97739.00;2072711;28;20227;-74
2021/01/22 01:26:20;;;;;;;169.70;77.25;;;;;;;-2.34;100.00;97725.16;2072518;28;20683;-74
2021/01/22 01:27:21;;;;;;;162.40;74.90;;;;;;;-2.27;100.00;97745.81;2072651;28;20306;-75
2021/01/22 01:28:22;;;;;;;171.45;79.57;;;;;;;-2.27;100.00;97744.00;2078210;28;20219;-75
2021/01/22 01:29:24;;;;;;;168.27;78.00;;;;;;;-2.27;100.00;97738.78;2097060;28;20222;-75
2021/01/22 01:30:25;;;;;;;173.10;77.38;;;;;;;-2.28;100.00;97739.03;2097005;28;20661;-75
2021/01/22 01:31:26;;;;;;;182.25;81.80;;;;;;;-2.29;100.00;97734.84;2080740;28;20622;-75
2021/01/22 01:32:27;;;;;;;175.85;79.97;;;;;;;-2.34;100.00;97735.59;2080614;28;20322;-75
2021/01/22 01:33:28;;;;;;;166.50;76.57;;;;;;;-2.35;100.00;97733.97;2080463;28;20230;-74
2021/01/22 01:34:29;;;;;;;173.43;77.78;;;;;;;-2.37;100.00;97728.22;2080509;28;20277;-74
2021/01/22 01:35:30;;;;;;;166.67;76.37;;;;;;;-2.38;100.00;97726.66;2080387;28;20219;-74
2021/01/22 01:36:31;;;;;;;166.55;73.78;;;;;;;-2.39;100.00;97725.06;2088666;28;20279;-75
2021/01/22 01:37:32;;;;;;;181.13;75.20;;;;;;;-2.48;100.00;97710.88;2080455;28;20223;-75
2021/01/22 01:38:33;;;;;;;163.20;73.82;;;;;;;-2.46;100.00;97714.03;2072424;28;20228;-75
2021/01/22 01:39:35;;;;;;;156.47;74.40;;;;;;;-2.48;100.00;97723.94;2072584;28;20295;-75
2021/01/22 01:40:36;;;;;;;165.43;76.45;;;;;;;-2.53;100.00;97713.41;2072372;28;20698;-75
2021/01/22 01:41:38;;;;;;;184.37;75.20;;;;;;;-2.59;100.00;97709.19;2078218;28;20604;-76
2021/01/22 01:42:38;;;;;;;164.32;75.55;;;;;;;-2.54;100.00;97713.66;2096730;28;20230;-75
2021/01/22 01:43:40;;;;;;;160.40;73.93;;;;;;;-2.57;100.00;97704.50;2097014;28;20700;-75
2021/01/22 01:44:41;;;;;;;158.00;76.43;;;;;;;-2.51;100.00;97705.38;2081356;28;20258;-75
2021/01/22 01:45:42;;;;;;;170.50;77.15;;;;;;;-2.51;100.00;97711.38;2080359;28;20313;-75
2021/01/22 01:46:43;;;;;;;168.70;76.80;;;;;;;-2.53;100.00;97702.97;2080573;28;20225;-75
2021/01/22 01:47:45;;;;;;;166.57;77.47;;;;;;;-2.55;100.00;97712.88;2080646;28;20228;-74
2021/01/22 01:48:46;;;;;;;165.20;74.13;;;;;;;-2.66;100.00;97687.72;2080486;28;20215;-75
2021/01/22 01:49:48;;;;;;;170.85;72.03;;;;;;;-2.53;100.00;97707.41;2080258;28;20314;-74
2021/01/22 01:50:49;;;;;;;163.63;73.75;;;;;;;-2.52;100.00;97709.78;2080488;28;20254;-74
2021/01/22 01:51:51;;;;;;;154.90;73.63;;;;;;;-2.48;100.00;97699.66;2081060;28;20227;-74
2021/01/22 01:52:51;;;;;;;154.13;71.30;;;;;;;-2.48;100.00;97684.75;2080410;28;20234;-74
2021/01/22 01:53:53;;;;;;;157.50;71.47;;;;;;;-2.31;100.00;97708.97;2080001;28;20230;-76
2021/01/22 01:54:54;;;;;;;163.90;74.28;;;;;;;-2.29;100.00;97708.72;2080410;28;20231;-74
2021/01/22 01:55:56;;;;;;;169.60;77.65;;;;;;;-2.24;100.00;97700.16;2081099;28;20224;-74
2021/01/22 01:56:57;;;;;;;159.32;72.55;;;;;;;-2.22;100.00;97695.47;2080244;28;20278;-75
2021/01/22 01:57:59;;;;;;;159.83;73.83;;;;;;;-2.21;100.00;97689.22;2080431;28;20224;-75
2021/01/22 01:59:00;;;;;;;160.80;76.10;;;;;;;-2.29;100.00;97682.59;2088804;28;20700;-74
2021/01/22 02:00:05;;;;;;;178.73;79.53;;;;;;;-2.27;100.00;97690.97;2088435;28;20215;-73
2021/01/22 02:01:07;;;;;;;162.20;75.05;;;;;;;-2.31;100.00;97687.28;2080384;28;20738;-72
2021/01/22 02:02:09;;;;;;;161.70;74.88;;;;;;;-2.37;100.00;97676.00;2080681;28;20229;-73
2021/01/22 02:03:10;;;;;;;156.82;72.45;;;;;;;-2.35;100.00;97673.91;2080963;28;20344;-73
2021/01/22 02:04:11;;;;;;;172.55;75.70;;;;;;;-2.40;100.00;97679.09;2081072;28;20258;-75
2021/01/22 02:05:13;;;;;;;153.63;68.05;;;;;;;-2.43;100.00;97674.38;2080961;28;20353;-73
2021/01/22 02:06:14;;;;;;;138.88;65.80;;;;;;;-2.30;100.00;97676.59;2080218;28;20272;-74
2021/01/22 02:07:15;;;;;;;154.75;68.18;;;;;;;-2.18;100.00;97673.03;2080354;28;20575;-74
2021/01/22 02:08:18;;;;;;;148.80;70.83;;;;;;;-2.10;100.00;97675.97;2080247;28;20321;-73
2021/01/22 02:09:19;;;;;;;145.90;63.85;;;;;;;-2.00;100.00;97675.28;2080120;28;20223;-73
2021/01/22 02:10:22;;;;;;;149.10;67.60;;;;;;;-1.95;100.00;97677.94;2080191;28;20227;-73
2021/01/22 02:11:23;;;;;;;149.25;68.10;;;;;;;-1.94;100.00;97658.59;2079949;28;20227;-74
2021/01/22 02:12:24;;;;;;;150.38;69.35;;;;;;;-1.84;100.00;97679.59;2080893;28;20286;-73
2021/01/22 02:13:25;;;;;;;147.73;69.43;;;;;;;-1.82;100.00;97667.09;2080227;28;20229;-73
2021/01/22 02:14:27;;;;;;;148.27;68.50;;;;;;;-1.74;100.00;97669.25;2088431;28;20304;-72
2021/01/22 02:15:28;;;;;;;150.05;69.93;;;;;;;-1.74;100.00;97658.78;2088445;28;20364;-74
2021/01/22 02:16:31;;;;;;;153.05;67.20;;;;;;;-1.83;100.00;97644.56;2072003;28;20216;-73
2021/01/22 02:17:31;;;;;;;141.35;66.32;;;;;;;-1.68;100.00;97661.41;2080221;28;20757;-73
2021/01/22 02:18:33;;;;;;;146.50;69.17;;;;;;;-1.61;100.00;97659.38;2080877;28;20588;-72
2021/01/22 02:19:48;;;;;;;154.70;69.65;;;;;;;-1.65;100.00;97658.28;2080313;28;20776;-72
2021/01/22 02:21:00;;;;;;;140.10;65.53;;;;;;;-1.68;100.00;97656.97;2073728;28;20251;-73
2021/01/22 02:22:00;;;;;;;131.57;63.15;;;;;;;-1.75;100.00;97657.19;2080077;28;20249;-73
2021/01/22 02:23:02;;;;;;;142.30;66.43;;;;;;;-1.84;100.00;97640.38;2080536;28;21115;-74
2021/01/22 02:24:06;;;;;;;151.00;68.53;;;;;;;-1.82;100.00;97643.56;2080177;28;20224;-73
2021/01/22 02:25:09;;;;;;;152.88;69.32;;;;;;;-1.85;100.00;97640.63;2079625;28;20310;-74
2021/01/22 02:26:21;;;;;;;144.65;68.47;;;;;;;-1.91;100.00;97641.63;2088156;28;20223;-73
2021/01/22 02:27:23;;;;;;;140.98;64.72;;;;;;;-1.91;100.00;97641.63;2086638;28;20219;-73
2021/01/22 02:28:25;;;;;;;152.75;64.93;;;;;;;-1.88;100.00;97641.94;2081040;28;20227;-73
2021/01/22 02:29:27;;;;;;;143.25;63.38;;;;;;;-1.87;100.00;97633.06;2080102;28;20237;-72
2021/01/22 02:30:29;;;;;;;146.90;64.30;;;;;;;-1.80;100.00;97638.06;2079955;28;20223;-73
2021/01/22 02:31:30;;;;;;;137.75;63.70;;;;;;;-1.74;100.00;97643.09;2080076;28;20318;-73
2021/01/22 02:32:35;;;;;;;156.13;68.38;;;;;;;-1.73;100.00;97636.03;2080724;28;20227;-73
2021/01/22 02:33:36;;;;;;;136.75;63.75;;;;;;;-1.77;100.00;97622.66;2080949;28;20307;-73
2021/01/22 02:34:39;;;;;;;150.75;68.18;;;;;;;-1.78;100.00;97626.31;2077504;28;20234;-75
2021/01/22 02:35:41;;;;;;;141.70;59.95;;;;;;;-1.63;100.00;97624.84;2080138;28;20314;-73
2021/01/22 02:36:45;;;;;;;142.27;62.30;;;;;;;-1.58;100.00;97628.25;2080909;28;20768;-74
2021/01/22 02:37:48;;;;;;;137.43;63.97;;;;;;;-1.61;100.00;97620.94;2080868;28;20313;-73
2021/01/22 02:38:50;;;;;;;135.65;63.70;;;;;;;-1.62;100.00;97618.59;2080817;28;20290;-73
2021/01/22 02:39:52;;;;;;;147.18;68.97;;;;;;;-1.63;100.00;97623.03;2080801;28;20304;-73
2021/01/22 02:40:56;;;;;;;138.30;66.82;;;;;;;-1.67;100.00;97629.78;2079374;28;20227;-73
2021/01/22 02:41:57;;;;;;;137.30;64.15;;;;;;;-1.68;100.00;97624.81;2079868;28;20259;-72
2021/01/22 02:43:01;;;;;;;144.75;65.78;;;;;;;-1.68;100.00;97624.81;2080795;28;20219;-72
2021/01/22 02:44:04;;;;;;;133.13;63.67;;;;;;;-1.71;100.00;97626.91;2079996;28;20234;-73
2021/01/22 02:45:07;;;;;;;149.15;66.70;;;;;;;-1.74;100.00;97614.34;2079940;28;20222;-73
2021/01/22 02:46:07;;;;;;;140.77;64.65;;;;;;;-1.78;100.00;97615.88;2079704;28;20223;-73
2021/01/22 02:47:09;;;;;;;132.23;62.73;;;;;;;-1.75;100.00;97623.19;2080850;28;20231;-73
2021/01/22 02:48:12;;;;;;;144.65;64.93;;;;;;;-1.75;100.00;97615.34;2080722;28;20622;-73
2021/01/22 02:49:13;;;;;;;140.95;63.03;;;;;;;-1.80;100.00;97591.03;2080793;28;20580;-73
2021/01/22 02:50:16;;;;;;;149.10;68.65;;;;;;;-1.60;100.00;97611.25;2080804;28;20223;-72
2021/01/22 02:51:18;;;;;;;132.32;61.97;;;;;;;-1.72;100.00;97587.94;2079957;28;20223;-73
2021/01/22 02:52:19;;;;;;;137.18;65.43;;;;;;;-1.62;100.00;97603.69;2080014;28;20236;-73
2021/01/22 02:53:20;;;;;;;139.32;64.88;;;;;;;-1.69;100.00;97597.88;2079958;28;20224;-73
2021/01/22 02:54:21;;;;;;;141.82;65.43;;;;;;;-1.66;100.00;97599.97;2079904;28;20274;-73
2021/01/22 02:55:22;;;;;;;138.63;64.57;;;;;;;-1.65;100.00;97606.00;2079058;28;20281;-74
2021/01/22 02:56:33;;;;;;;138.35;64.70;;;;;;;-1.69;100.00;97597.88;2071777;28;20232;-73
2021/01/22 02:57:37;;;;;;;136.18;63.22;;;;;;;-1.67;100.00;97602.84;2079564;28;20242;-74
2021/01/22 02:58:45;;;;;;;129.50;63.60;;;;;;;-1.68;100.00;97601.28;2079502;28;20245;-73
2021/01/22 02:59:53;;;;;;;139.38;65.85;;;;;;;-1.74;100.00;97603.88;2079954;28;20258;-73
2021/01/22 03:00:56;;;;;;;139.13;63.65;;;;;;;-1.73;100.00;97607.28;2079355;28;20686;-73
2021/01/22 03:02:06;;;;;;;141.23;63.70;;;;;;;-1.76;100.00;97600.72;2079923;28;20265;-73
2021/01/22 03:03:12;;;;;;;138.60;63.00;;;;;;;-1.74;100.00;97595.22;2080555;28;20231;-77
2021/01/22 03:04:14;;;;;;;140.52;65.55;;;;;;;-1.85;100.00;97578.69;2080618;28;20249;-74
2021/01/22 03:05:16;;;;;;;137.93;64.22;;;;;;;-1.78;100.00;97581.88;2079770;28;20223;-73
2021/01/22 03:06:21;;;;;;;146.93;63.92;;;;;;;-1.72;100.00;97590.56;2079961;28;20219;-73
2021/01/22 03:07:26;;;;;;;137.98;62.50;;;;;;;-1.69;100.00;97595.25;2078107;28;20227;-75
2021/01/22 03:08:28;;;;;;;143.15;65.07;;;;;;;-1.67;100.00;97592.41;2079743;28;21186;-73
2021/01/22 03:09:29;;;;;;;139.02;66.05;;;;;;;-1.78;100.00;97576.66;2079954;28;20223;-73
2021/01/22 03:10:31;;;;;;;144.38;69.25;;;;;;;-1.81;100.00;97574.56;2080575;28;20215;-74
2021/01/22 03:11:35;;;;;;;138.60;66.72;;;;;;;-1.74;100.00;97585.59;2079750;28;20238;-74
2021/01/22 03:12:37;;;;;;;131.63;62.75;;;;;;;-1.77;100.00;97575.59;2079830;28;20315;-74
2021/01/22 03:13:39;;;;;;;143.02;65.88;;;;;;;-1.76;100.00;97582.41;2079207;28;20301;-74
2021/01/22 03:14:42;;;;;;;144.90;65.70;;;;;;;-1.75;100.00;97583.97;2079860;28;20798;-74
2021/01/22 03:15:44;;;;;;;142.25;66.15;;;;;;;-1.87;100.00;97562.50;2079632;28;20642;-74
2021/01/22 03:16:45;;;;;;;135.27;63.33;;;;;;;-1.74;100.00;97585.59;2079844;28;20227;-74
2021/01/22 03:17:46;;;;;;;128.52;61.65;;;;;;;-1.73;100.00;97581.13;2079392;28;20219;-73
2021/01/22 03:19:01;;;;;;;144.13;68.90;;;;;;;-1.74;100.00;97574.31;2079851;28;20295;-74
2021/01/22 03:20:02;;;;;;;138.52;65.22;;;;;;;-1.74;100.00;97580.34;2095908;28;20304;-73
2021/01/22 03:21:09;;;;;;;138.38;68.50;;;;;;;-1.76;100.00;97579.78;2087970;28;20268;-74
2021/01/22 03:22:10;;;;;;;135.13;65.75;;;;;;;-1.87;100.00;97572.16;2065432;28;20251;-73
2021/01/22 03:23:13;;;;;;;137.57;63.30;;;;;;;-1.73;100.00;97574.09;2063362;28;20252;-73
2021/01/22 03:24:13;;;;;;;137.68;65.32;;;;;;;-1.82;100.00;97566.97;2076514;28;20289;-73
2021/01/22 03:25:15;;;;;;;137.23;66.20;;;;;;;-1.74;100.00;97576.94;2080557;28;20278;-74
2021/01/22 03:26:16;;;;;;;148.85;67.45;;;;;;;-1.76;100.00;97579.78;2079984;28;20219;-74
2021/01/22 03:27:17;;;;;;;131.33;64.53;;;;;;;-1.73;100.00;97583.75;2079948;28;20226;-74
2021/01/22 03:28:18;;;;;;;141.45;66.90;;;;;;;-1.72;100.00;97588.72;2096194;28;20301;-73
2021/01/22 03:29:20;;;;;;;131.03;64.27;;;;;;;-1.72;100.00;97575.66;2096131;28;20218;-74
2021/01/22 03:30:22;;;;;;;140.15;65.20;;;;;;;-1.71;100.00;97576.44;2080432;28;20253;-74
2021/01/22 03:31:23;;;;;;;137.90;66.40;;;;;;;-1.68;100.00;97582.97;2079200;28;20761;-74
2021/01/22 03:32:24;;;;;;;140.90;63.97;;;;;;;-1.68;100.00;97578.53;2079636;28;20585;-74
2021/01/22 03:33:25;;;;;;;137.43;64.20;;;;;;;-1.73;100.00;97566.25;2079717;28;20223;-73
2021/01/22 03:34:26;;;;;;;145.90;67.05;;;;;;;-1.67;100.00;97581.94;2071531;28;20239;-74
2021/01/22 03:35:28;;;;;;;140.67;65.53;;;;;;;-1.73;100.00;97568.84;2071399;28;20797;-74
2021/01/22 03:36:29;;;;;;;144.40;65.53;;;;;;;-1.67;100.00;97563.63;2079659;28;20230;-73
2021/01/22 03:37:30;;;;;;;139.02;66.88;;;;;;;-1.65;100.00;97570.22;2080348;28;20242;-73
2021/01/22 03:38:31;;;;;;;140.70;64.85;;;;;;;-1.66;100.00;97573.84;2080391;28;20223;-73
2021/01/22 03:39:35;;;;;;;135.63;66.10;;;;;;;-1.67;100.00;97569.66;2079702;28;20223;-74
2021/01/22 03:40:36;;;;;;;132.32;61.13;;;;;;;-1.61;100.00;97563.41;2079837;28;20270;-73
2021/01/22 03:41:37;;;;;;;135.50;62.07;;;;;;;-1.60;100.00;97570.22;2080135;28;20306;-74
2021/01/22 03:42:38;;;;;;;138.82;63.33;;;;;;;-1.59;100.00;97568.38;2079550;28;20231;-74
2021/01/22 03:43:39;;;;;;;135.83;64.63;;;;;;;-1.64;100.00;97557.91;2079612;28;20790;-73
2021/01/22 03:44:42;;;;;;;142.85;66.53;;;;;;;-1.61;100.00;97571.25;2080377;28;20231;-74
2021/01/22 03:45:43;;;;;;;136.48;63.53;;;;;;;-1.60;100.00;97569.44;2080472;28;20568;-74
2021/01/22 03:46:44;;;;;;;136.98;64.28;;;;;;;-1.57;100.00;97568.91;2080445;28;20234;-73
2021/01/22 03:47:45;;;;;;;134.98;64.40;;;;;;;-1.64;100.00;97557.91;2079433;28;20623;-73
2021/01/22 03:48:47;;;;;;;132.85;64.65;;;;;;;-1.59;100.00;97566.56;2079671;28;20702;-73
2021/01/22 03:49:48;;;;;;;138.65;66.63;;;;;;;-1.59;100.00;97574.41;2079542;28;20601;-73
2021/01/22 03:50:49;;;;;;;144.35;64.28;;;;;;;-1.58;100.00;97567.34;2079654;28;20751;-73
2021/01/22 03:51:50;;;;;;;140.93;63.93;;;;;;;-1.58;100.00;97567.34;2080326;28;20246;-74
2021/01/22 03:52:51;;;;;;;132.50;64.18;;;;;;;-1.64;100.00;97550.06;2079321;28;20582;-74
2021/01/22 03:53:54;;;;;;;127.03;62.57;;;;;;;-1.63;100.00;97547.19;2064972;28;20242;-76
2021/01/22 03:54:54;;;;;;;139.32;67.03;;;;;;;-1.57;100.00;97555.84;2075850;28;20228;-73
2021/01/22 03:55:56;;;;;;;136.97;64.83;;;;;;;-1.56;100.00;97553.00;2080282;28;20223;-73
2021/01/22 03:56:56;;;;;;;136.20;64.60;;;;;;;-1.61;100.00;97541.72;2080162;28;21616;-74
2021/01/22 03:57:58;;;;;;;144.47;66.60;;;;;;;-1.57;100.00;97556.63;2079438;28;20636;-74
2021/01/22 03:58:59;;;;;;;136.30;62.47;;;;;;;-1.58;100.00;97552.44;2079561;28;20230;-73
2021/01/22 04:00:01;;;;;;;135.17;64.73;;;;;;;-1.66;100.00;97541.69;2080255;28;20223;-73
2021/01/22 04:01:02;;;;;;;143.90;66.13;;;;;;;-1.66;100.00;97536.44;2080190;28;20242;-73
2021/01/22 04:02:03;;;;;;;133.97;63.87;;;;;;;-1.55;100.00;97561.63;2080368;28;20266;-74
2021/01/22 04:03:04;;;;;;;136.93;64.97;;;;;;;-1.55;100.00;97553.78;2080326;28;20219;-73
2021/01/22 04:04:05;;;;;;;134.77;62.53;;;;;;;-1.55;100.00;97559.78;2079484;28;20253;-74
2021/01/22 04:05:07;;;;;;;141.27;66.30;;;;;;;-1.53;100.00;97554.31;2071612;28;20220;-73
2021/01/22 04:06:09;;;;;;;131.23;60.95;;;;;;;-1.51;100.00;97560.06;2079047;28;20227;-74
2021/01/22 04:07:10;;;;;;;115.18;54.90;;;;;;;-1.33;100.00;97551.75;2071306;28;20223;-73
2021/01/22 04:08:12;;;;;;;116.13;55.72;;;;;;;-1.29;100.00;97544.22;2071459;28;20232;-74
2021/01/22 04:09:12;;;;;;;133.75;63.88;;;;;;;-1.29;100.00;97536.34;2079729;28;20634;-74
2021/01/22 04:10:14;;;;;;;131.17;61.43;;;;;;;-1.25;100.00;97535.56;2079433;28;20227;-73
2021/01/22 04:11:16;;;;;;;109.55;58.05;;;;;;;-1.19;100.00;97529.31;2079611;28;20304;-73
2021/01/22 04:12:17;;;;;;;130.20;63.08;;;;;;;-1.10;100.00;97537.47;2080183;28;20698;-74
2021/01/22 04:13:18;;;;;;;131.57;64.20;;;;;;;-1.09;100.00;97538.25;2080190;28;20235;-74
2021/01/22 04:14:19;;;;;;;134.00;63.00;;;;;;;-1.17;100.00;97526.44;2080212;28;20230;-73
2021/01/22 04:15:21;;;;;;;122.78;61.33;;;;;;;-1.12;100.00;97530.91;2080227;28;20211;-73
2021/01/22 04:16:23;;;;;;;119.55;58.38;;;;;;;-1.07;100.00;97525.69;2079919;28;20759;-74
2021/01/22 04:17:23;;;;;;;137.13;63.88;;;;;;;-1.12;100.00;97517.84;2079184;28;20229;-73
2021/01/22 04:18:25;;;;;;;133.40;62.10;;;;;;;-1.03;100.00;97524.13;2079609;28;20219;-74
2021/01/22 04:19:26;;;;;;;128.07;61.92;;;;;;;-1.05;100.00;97519.13;2071146;28;20307;-73
2021/01/22 04:20:27;;;;;;;116.90;56.35;;;;;;;-1.18;100.00;97499.50;2079466;28;21252;-75
2021/01/22 04:21:28;;;;;;;115.90;54.95;;;;;;;-1.06;100.00;97512.31;2079376;28;20815;-75
2021/01/22 04:22:29;;;;;;;119.10;57.77;;;;;;;-1.08;100.00;97514.44;2079443;28;20572;-74
2021/01/22 04:23:30;;;;;;;124.75;60.22;;;;;;;-1.04;100.00;97518.13;2080309;28;20692;-74
2021/01/22 04:24:31;;;;;;;125.53;59.17;;;;;;;-1.02;100.00;97520.47;2080168;28;20583;-74
2021/01/22 04:25:32;;;;;;;125.35;59.63;;;;;;;-0.99;100.00;97519.94;2079441;28;20227;-74
2021/01/22 04:26:33;;;;;;;127.67;61.77;;;;;;;-1.04;100.00;97509.44;2071593;28;20252;-74
2021/01/22 04:27:34;;;;;;;140.68;63.75;;;;;;;-1.02;100.00;97515.22;2079370;28;20227;-75
2021/01/22 04:28:36;;;;;;;115.43;56.63;;;;;;;-1.08;100.00;97505.78;2080395;28;20227;-75
2021/01/22 04:29:37;;;;;;;93.53;53.05;;;;;;;-1.09;100.00;97512.84;2080518;28;20321;-78
2021/01/22 04:30:39;;;;;;;115.55;55.95;;;;;;;-1.05;100.00;97498.19;2081708;28;20223;-75
2021/01/22 04:31:40;;;;;;;125.93;61.85;;;;;;;-1.06;100.00;97516.78;2081781;28;20262;-75
2021/01/22 04:32:41;;;;;;;113.77;55.13;;;;;;;-1.16;100.00;97510.47;2081972;28;20231;-74
2021/01/22 04:33:42;;;;;;;118.85;55.38;;;;;;;-1.04;100.00;97530.38;2080998;28;20604;-75
2021/01/22 04:34:43;;;;;;;119.00;55.67;;;;;;;-1.04;100.00;97523.34;2073020;28;20227;-74
2021/01/22 04:35:44;;;;;;;115.70;56.10;;;;;;;-1.00;100.00;97523.59;2081172;28;20219;-74
2021/01/22 04:36:45;;;;;;;111.37;52.30;;;;;;;-1.04;100.00;97517.31;2080534;28;20227;-74
2021/01/22 04:37:47;;;;;;;127.70;61.08;;;;;;;-1.05;100.00;97528.81;2080938;28;20227;-74
2021/01/22 04:38:48;;;;;;;116.47;57.67;;;;;;;-1.12;100.00;97518.63;2081458;28;20294;-74
2021/01/22 04:39:49;;;;;;;115.53;57.20;;;;;;;-1.16;100.00;97515.72;2089437;28;20766;-74
2021/01/22 04:40:51;;;;;;;125.23;60.17;;;;;;;-1.20;100.00;97516.50;2081016;28;20721;-74